Time;durP1;ratioP1;P1;durP2;ratioP2;P2;SDS_P1;SDS_P2;PMS_P1;PMS_P2;Temp;Humidity;BMP_temperature;BMP_pressure;BME280_temperature;BME280_humidity;BME280_pressure;Samples;Min_cycle;Max_cycle;Signal;HPM_P1;HPM_P2
2023/10/31 00:01:29;;;;;;;;;;;;;;;;;;5032918;28;19948;-69
2023/10/31 00:03:56;;;;;;;;;;;;;;;;;;5033834;28;19932;-69
2023/10/31 00:06:23;;;;;;;;;;;;;;;;;;5033027;28;19931;-69
2023/10/31 00:08:50;;;;;;;;;;;;;;;;;;5033570;28;19925;-69
2023/10/31 00:11:17;;;;;;;;;;;;;;;;;;5031615;28;19930;-69
2023/10/31 00:13:44;;;;;;;;;;;;;;;;;;5032987;28;19924;-69
2023/10/31 00:16:11;;;;;;;;;;;;;;;;;;5032220;28;20350;-70
2023/10/31 00:18:38;;;;;;;;;;;;;;;;;;5033929;28;19975;-69
2023/10/31 00:21:06;;;;;;;;;;;;;;;;;;5033458;28;20384;-69
2023/10/31 00:23:33;;;;;;;;;;;;;;;;;;5032431;28;19933;-69
2023/10/31 00:26:00;;;;;;;;;;;;;;;;;;5033646;28;20031;-69
2023/10/31 00:28:27;;;;;;;;;;;;;;;;;;5032904;28;20012;-69
2023/10/31 00:30:55;;;;;;;;;;;;;;;;;;5031294;28;20009;-69
2023/10/31 00:33:22;;;;;;;;;;;;;;;;;;5030292;28;19947;-69
2023/10/31 00:35:49;;;;;;;;;;;;;;;;;;5030783;28;19969;-69
2023/10/31 00:38:15;;;;;;;;;;;;;;;;;;5031767;28;20028;-69
2023/10/31 00:40:42;;;;;;;;;;;;;;;;;;5033055;28;20407;-69
2023/10/31 00:43:09;;;;;;;;;;;;;;;;;;5023281;28;19933;-68
2023/10/31 00:45:36;;;;;;;;;;;;;;;;;;5032972;28;20128;-68
2023/10/31 00:48:03;;;;;;;;;;;;;;;;;;5033254;28;20007;-69
2023/10/31 00:50:30;;;;;;;;;;;;;;;;;;5032718;28;19964;-69
2023/10/31 00:52:57;;;;;;;;;;;;;;;;;;5031982;28;19964;-69
2023/10/31 00:55:24;;;;;;;;;;;;;;;;;;5013265;28;19932;-70
2023/10/31 00:57:50;;;;;;;;;;;;;;;;;;5013695;28;19931;-69
2023/10/31 01:00:17;;;;;;;;;;;;;;;;;;5017192;28;20020;-69
2023/10/31 01:02:44;;;;;;;;;;;;;;;;;;5031548;28;20007;-69
2023/10/31 01:05:11;;;;;;;;;;;;;;;;;;5032298;28;19971;-69
2023/10/31 01:07:38;;;;;;;;;;;;;;;;;;5032956;28;20347;-68
2023/10/31 01:10:05;;;;;;;;;;;;;;;;;;5032279;28;19961;-69
2023/10/31 01:12:32;;;;;;;;;;;;;;;;;;5032520;28;20011;-68
2023/10/31 01:14:59;;;;;;;;;;;;;;;;;;5031017;28;20339;-69
2023/10/31 01:17:26;;;;;;;;;;;;;;;;;;5031319;28;20328;-68
2023/10/31 01:19:53;;;;;;;;;;;;;;;;;;5032912;28;20343;-69
2023/10/31 01:22:20;;;;;;;;;;;;;;;;;;5032501;28;19925;-69
2023/10/31 01:24:47;;;;;;;;;;;;;;;;;;5029851;28;19975;-69
2023/10/31 01:27:14;;;;;;;;;;;;;;;;;;5032100;28;20436;-69
2023/10/31 01:29:41;;;;;;;;;;;;;;;;;;5031540;28;20025;-68
2023/10/31 01:32:08;;;;;;;;;;;;;;;;;;5031854;28;19929;-69
2023/10/31 01:34:35;;;;;;;;;;;;;;;;;;5030750;28;19987;-69
2023/10/31 01:37:02;;;;;;;;;;;;;;;;;;5031540;28;20372;-69
2023/10/31 01:39:30;;;;;;;;;;;;;;;;;;5032304;28;19967;-70
2023/10/31 01:41:57;;;;;;;;;;;;;;;;;;5031049;28;20112;-69
2023/10/31 01:44:24;;;;;;;;;;;;;;;;;;5030517;28;19925;-68
2023/10/31 01:46:51;;;;;;;;;;;;;;;;;;5032246;28;20459;-69
2023/10/31 01:49:18;;;;;;;;;;;;;;;;;;5031638;28;19928;-69
2023/10/31 01:51:45;;;;;;;;;;;;;;;;;;5031395;28;19929;-69
2023/10/31 01:54:12;;;;;;;;;;;;;;;;;;5031891;28;19929;-71
2023/10/31 01:56:39;;;;;;;;;;;;;;;;;;5027536;28;19972;-69
2023/10/31 01:59:06;;;;;;;;;;;;;;;;;;5032021;28;20012;-68
2023/10/31 02:01:33;;;;;;;;;;;;;;;;;;5030444;28;20012;-69
2023/10/31 02:04:02;;;;;;;;;;;;;;;;;;5029746;28;19951;-69
2023/10/31 02:06:29;;;;;;;;;;;;;;;;;;5029851;28;20372;-68
2023/10/31 02:08:56;;;;;;;;;;;;;;;;;;5031124;28;19925;-69
2023/10/31 02:11:23;;;;;;;;;;;;;;;;;;5031565;28;19979;-70
2023/10/31 02:13:50;;;;;;;;;;;;;;;;;;5033827;28;19925;-69
2023/10/31 02:16:17;;;;;;;;;;;;;;;;;;5034183;28;20016;-69
2023/10/31 02:18:44;;;;;;;;;;;;;;;;;;5035470;28;20020;-69
2023/10/31 02:21:11;;;;;;;;;;;;;;;;;;5035228;28;19964;-69
2023/10/31 02:23:38;;;;;;;;;;;;;;;;;;5035559;28;20008;-69
2023/10/31 02:26:05;;;;;;;;;;;;;;;;;;5033143;28;20036;-69
2023/10/31 02:28:32;;;;;;;;;;;;;;;;;;5033788;28;20028;-69
2023/10/31 02:31:00;;;;;;;;;;;;;;;;;;5033955;28;19968;-69
2023/10/31 02:33:27;;;;;;;;;;;;;;;;;;5035144;28;19925;-69
2023/10/31 02:35:54;;;;;;;;;;;;;;;;;;5034877;28;19971;-69
2023/10/31 02:38:21;;;;;;;;;;;;;;;;;;5035439;28;19929;-69
2023/10/31 02:40:48;;;;;;;;;;;;;;;;;;5035425;28;19926;-69
2023/10/31 02:43:15;;;;;;;;;;;;;;;;;;5035448;28;19925;-69
2023/10/31 02:45:42;;;;;;;;;;;;;;;;;;5033215;28;20392;-68
2023/10/31 02:48:09;;;;;;;;;;;;;;;;;;5032244;28;20020;-69
2023/10/31 02:50:36;;;;;;;;;;;;;;;;;;5034230;28;19979;-69
2023/10/31 02:53:03;;;;;;;;;;;;;;;;;;5035272;28;19964;-68
2023/10/31 02:55:30;;;;;;;;;;;;;;;;;;5035048;28;19960;-69
2023/10/31 02:57:57;;;;;;;;;;;;;;;;;;5026292;28;20265;-69
2023/10/31 03:00:24;;;;;;;;;;;;;;;;;;5021649;28;20021;-69
2023/10/31 03:02:51;;;;;;;;;;;;;;;;;;5035026;28;20446;-70
2023/10/31 03:05:18;;;;;;;;;;;;;;;;;;5034950;28;19979;-68
2023/10/31 03:07:45;;;;;;;;;;;;;;;;;;5033632;28;19925;-69
2023/10/31 03:10:12;;;;;;;;;;;;;;;;;;5034400;28;20388;-70
2023/10/31 03:12:39;;;;;;;;;;;;;;;;;;5034125;28;19935;-68
2023/10/31 03:15:06;;;;;;;;;;;;;;;;;;5033852;28;19929;-69
2023/10/31 03:17:33;;;;;;;;;;;;;;;;;;5031625;28;19932;-69
2023/10/31 03:20:00;;;;;;;;;;;;;;;;;;5034444;28;20023;-68
2023/10/31 03:22:27;;;;;;;;;;;;;;;;;;5034474;28;19964;-69
2023/10/31 03:24:54;;;;;;;;;;;;;;;;;;5033567;28;19931;-68
2023/10/31 03:27:21;;;;;;;;;;;;;;;;;;5033844;28;20004;-70
2023/10/31 03:29:48;;;;;;;;;;;;;;;;;;5034270;28;19983;-69
2023/10/31 03:32:15;;;;;;;;;;;;;;;;;;5033134;28;20406;-69
2023/10/31 03:34:42;;;;;;;;;;;;;;;;;;5034728;28;19947;-69
2023/10/31 03:37:09;;;;;;;;;;;;;;;;;;5033286;28;20015;-69
2023/10/31 03:39:36;;;;;;;;;;;;;;;;;;5034617;28;19979;-69
2023/10/31 03:42:05;;;;;;;;;;;;;;;;;;5034717;28;20008;-69
2023/10/31 03:44:32;;;;;;;;;;;;;;;;;;5034862;28;19933;-69
2023/10/31 03:46:59;;;;;;;;;;;;;;;;;;5033453;28;20051;-69
2023/10/31 03:49:26;;;;;;;;;;;;;;;;;;5030627;28;20074;-69
2023/10/31 03:51:53;;;;;;;;;;;;;;;;;;5034087;28;20020;-70
2023/10/31 03:54:20;;;;;;;;;;;;;;;;;;5034253;28;19929;-69
2023/10/31 03:56:48;;;;;;;;;;;;;;;;;;5034328;28;19976;-69
2023/10/31 03:59:15;;;;;;;;;;;;;;;;;;5032814;28;19925;-69
2023/10/31 04:01:42;;;;;;;;;;;;;;;;;;5032951;28;19932;-69
2023/10/31 04:04:09;;;;;;;;;;;;;;;;;;5032656;28;20023;-69
2023/10/31 04:06:39;;;;;;;;;;;;;;;;;;5017092;28;19926;-69
2023/10/31 04:09:06;;;;;;;;;;;;;;;;;;5030286;28;19933;-69
2023/10/31 04:11:33;;;;;;;;;;;;;;;;;;5033445;28;19925;-69
2023/10/31 04:14:00;;;;;;;;;;;;;;;;;;5033517;28;20523;-69
2023/10/31 04:16:27;;;;;;;;;;;;;;;;;;5032999;28;19963;-69
2023/10/31 04:18:54;;;;;;;;;;;;;;;;;;5032985;28;19929;-69
2023/10/31 04:21:21;;;;;;;;;;;;;;;;;;5032032;28;20383;-69
2023/10/31 04:23:48;;;;;;;;;;;;;;;;;;5033829;28;19979;-69
2023/10/31 04:26:17;;;;;;;;;;;;;;;;;;5033962;28;20012;-69
2023/10/31 04:28:44;;;;;;;;;;;;;;;;;;5032302;28;19926;-69
2023/10/31 04:31:11;;;;;;;;;;;;;;;;;;5026198;28;19987;-69
2023/10/31 04:33:38;;;;;;;;;;;;;;;;;;5033178;28;19968;-69
2023/10/31 04:36:05;;;;;;;;;;;;;;;;;;5032952;28;20018;-69
2023/10/31 04:38:32;;;;;;;;;;;;;;;;;;5032871;28;19979;-69
2023/10/31 04:40:59;;;;;;;;;;;;;;;;;;5032482;28;20395;-69
2023/10/31 04:43:26;;;;;;;;;;;;;;;;;;5032959;28;19933;-68
2023/10/31 04:45:53;;;;;;;;;;;;;;;;;;5033110;28;20028;-68
2023/10/31 04:48:20;;;;;;;;;;;;;;;;;;5032161;28;20383;-67
2023/10/31 04:50:47;;;;;;;;;;;;;;;;;;5032117;28;20016;-68
2023/10/31 04:53:14;;;;;;;;;;;;;;;;;;5032472;28;19968;-68
2023/10/31 04:55:41;;;;;;;;;;;;;;;;;;5026820;28;19979;-68
2023/10/31 04:58:08;;;;;;;;;;;;;;;;;;5032097;28;20483;-69
2023/10/31 05:00:35;;;;;;;;;;;;;;;;;;5031532;28;20388;-69
2023/10/31 05:03:02;;;;;;;;;;;;;;;;;;5031813;28;19967;-69
2023/10/31 05:05:29;;;;;;;;;;;;;;;;;;5032784;28;19925;-69
2023/10/31 05:07:56;;;;;;;;;;;;;;;;;;5032230;28;19925;-69
2023/10/31 05:10:24;;;;;;;;;;;;;;;;;;5031792;28;20023;-68
2023/10/31 05:12:51;;;;;;;;;;;;;;;;;;5032296;28;20486;-70
2023/10/31 05:15:18;;;;;;;;;;;;;;;;;;5033011;28;20020;-69
2023/10/31 05:17:46;;;;;;;;;;;;;;;;;;5031319;28;19979;-69
2023/10/31 05:20:13;;;;;;;;;;;;;;;;;;5031500;28;20372;-70
2023/10/31 05:22:40;;;;;;;;;;;;;;;;;;5028182;28;19960;-72
2023/10/31 05:25:07;;;;;;;;;;;;;;;;;;5030023;28;19984;-69
2023/10/31 05:27:34;;;;;;;;;;;;;;;;;;5029218;28;19924;-71
2023/10/31 05:30:01;;;;;;;;;;;;;;;;;;5032487;28;20016;-70
2023/10/31 05:32:29;;;;;;;;;;;;;;;;;;5030577;28;19931;-70
2023/10/31 05:34:56;;;;;;;;;;;;;;;;;;5032357;28;19972;-69
2023/10/31 05:37:23;;;;;;;;;;;;;;;;;;5032207;28;19986;-70
2023/10/31 05:39:50;;;;;;;;;;;;;;;;;;5032976;28;20023;-70
2023/10/31 05:42:20;;;;;;;;;;;;;;;;;;5030934;28;20366;-70
2023/10/31 05:44:47;;;;;;;;;;;;;;;;;;5028095;28;19944;-70
2023/10/31 05:47:14;;;;;;;;;;;;;;;;;;5030553;28;19979;-68
2023/10/31 05:49:41;;;;;;;;;;;;;;;;;;5030875;28;19967;-68
2023/10/31 05:52:08;;;;;;;;;;;;;;;;;;5029615;28;19971;-68
2023/10/31 05:54:35;;;;;;;;;;;;;;;;;;5031201;28;19925;-68
2023/10/31 05:57:02;;;;;;;;;;;;;;;;;;5028668;28;19925;-68
2023/10/31 05:59:29;;;;;;;;;;;;;;;;;;5031338;28;20446;-68
2023/10/31 06:01:55;;;;;;;;;;;;;;;;;;5031181;28;20019;-68
2023/10/31 06:04:24;;;;;;;;;;;;;;;;;;5031061;28;20376;-68
2023/10/31 06:06:51;;;;;;;;;;;;;;;;;;5032470;28;19933;-68
2023/10/31 06:09:18;;;;;;;;;;;;;;;;;;5024578;28;19929;-68
2023/10/31 06:11:47;;;;;;;;;;;;;;;;;;5029524;28;19947;-68
2023/10/31 06:14:14;;;;;;;;;;;;;;;;;;5031766;28;19983;-69
2023/10/31 06:16:41;;;;;;;;;;;;;;;;;;5030946;28;20366;-70
2023/10/31 06:19:08;;;;;;;;;;;;;;;;;;5022700;28;20295;-68
2023/10/31 06:21:35;;;;;;;;;;;;;;;;;;5032193;28;19932;-69
2023/10/31 06:24:03;;;;;;;;;;;;;;;;;;5030359;28;19925;-69
2023/10/31 06:26:30;;;;;;;;;;;;;;;;;;5031944;28;20340;-68
2023/10/31 06:28:57;;;;;;;;;;;;;;;;;;5027946;28;19925;-69
2023/10/31 06:31:24;;;;;;;;;;;;;;;;;;5030561;28;19983;-69
2023/10/31 06:33:51;;;;;;;;;;;;;;;;;;5030074;28;19925;-70
2023/10/31 06:36:18;;;;;;;;;;;;;;;;;;5031043;28;19999;-69
2023/10/31 06:38:45;;;;;;;;;;;;;;;;;;5030766;28;20016;-69
2023/10/31 06:41:12;;;;;;;;;;;;;;;;;;5031620;28;20367;-69
2023/10/31 06:43:39;;;;;;;;;;;;;;;;;;5029585;28;19976;-70
2023/10/31 06:46:06;;;;;;;;;;;;;;;;;;5029834;28;20011;-70
2023/10/31 06:48:33;;;;;;;;;;;;;;;;;;5030205;28;20429;-71
2023/10/31 06:51:00;;;;;;;;;;;;;;;;;;5029866;28;20020;-71
2023/10/31 06:53:27;;;;;;;;;;;;;;;;;;5029703;28;20011;-70
2023/10/31 06:55:54;;;;;;;;;;;;;;;;;;5030009;28;19925;-70
2023/10/31 06:58:21;;;;;;;;;;;;;;;;;;5029577;28;19933;-70
2023/10/31 07:00:48;;;;;;;;;;;;;;;;;;5056275;22;20366;-71
2023/10/31 07:03:16;;;;;;;;;;;;;;;;;;5057078;28;20016;-71
2023/10/31 07:05:43;;;;;;;;;;;;;;;;;;5066456;28;19935;-68
2023/10/31 07:08:10;;;;;;;;;;;;;;;;;;5055174;28;19959;-71
2023/10/31 07:10:37;;;;;;;;;;;;;;;;;;5055448;28;20394;-70
2023/10/31 07:13:04;;;;;;;;;;;;;;;;;;5056994;28;20450;-67
2023/10/31 07:15:31;;;;;;;;;;;;;;;;;;5057194;28;20011;-71
2023/10/31 07:17:58;;;;;;;;;;;;;;;;;;5074782;28;20392;-70
2023/10/31 07:20:25;;;;;;;;;;;;;;;;;;5059812;28;19925;-71
2023/10/31 07:22:52;;;;;;;;;;;;;;;;;;5055039;28;20007;-71
2023/10/31 07:25:19;;;;;;;;;;;;;;;;;;5054609;28;19925;-71
2023/10/31 07:27:46;;;;;;;;;;;;;;;;;;5054479;28;20015;-69
2023/10/31 07:30:13;;;;;;;;;;;;;;;;;;5054733;28;20024;-70
2023/10/31 07:32:40;;;;;;;;;;;;;;;;;;5053777;28;19925;-70
2023/10/31 07:35:07;;;;;;;;;;;;;;;;;;5052902;28;19925;-70
2023/10/31 07:37:34;;;;;;;;;;;;;;;;;;5054345;28;19925;-71
2023/10/31 07:40:01;;;;;;;;;;;;;;;;;;5056696;28;19932;-70
2023/10/31 07:42:28;;;;;;;;;;;;;;;;;;5054013;28;19931;-70
2023/10/31 07:44:55;;;;;;;;;;;;;;;;;;5054140;28;20379;-70
2023/10/31 07:47:22;;;;;;;;;;;;;;;;;;5050076;28;19978;-69
2023/10/31 07:49:49;;;;;;;;;;;;;;;;;;5052100;28;20457;-69
2023/10/31 07:52:16;;;;;;;;;;;;;;;;;;5051267;28;20025;-70
2023/10/31 07:54:43;;;;;;;;;;;;;;;;;;5050514;28;20347;-70
2023/10/31 07:57:10;;;;;;;;;;;;;;;;;;5047513;28;19932;-70
2023/10/31 07:59:37;;;;;;;;;;;;;;;;;;5051503;28;19925;-69
2023/10/31 08:02:04;;;;;;;;;;;;;;;;;;5039468;28;20019;-71
2023/10/31 08:04:32;;;;;;;;;;;;;;;;;;5049191;28;19933;-71
2023/10/31 08:06:59;;;;;;;;;;;;;;;;;;5051835;28;20052;-71
2023/10/31 08:09:26;;;;;;;;;;;;;;;;;;5040804;28;19929;-71
2023/10/31 08:11:53;;;;;;;;;;;;;;;;;;5038975;28;19929;-70
2023/10/31 08:14:21;;;;;;;;;;;;;;;;;;5044674;28;20019;-73
2023/10/31 08:16:49;;;;;;;;;;;;;;;;;;5046387;28;19964;-65
2023/10/31 08:19:15;;;;;;;;;;;;;;;;;;5044085;28;20268;-67
2023/10/31 08:21:43;;;;;;;;;;;;;;;;;;5051468;28;19935;-71
2023/10/31 08:24:10;;;;;;;;;;;;;;;;;;5045143;28;20407;-70
2023/10/31 08:26:37;;;;;;;;;;;;;;;;;;5052658;28;20326;-70
2023/10/31 08:29:04;;;;;;;;;;;;;;;;;;5049579;28;20019;-70
2023/10/31 08:31:31;;;;;;;;;;;;;;;;;;5046655;28;19940;-71
2023/10/31 08:33:58;;;;;;;;;;;;;;;;;;5041628;28;20384;-68
2023/10/31 08:36:25;;;;;;;;;;;;;;;;;;5049256;22;20183;-72
2023/10/31 08:38:52;;;;;;;;;;;;;;;;;;5049456;28;20314;-71
2023/10/31 08:41:20;;;;;;;;;;;;;;;;;;5041237;28;19928;-69
2023/10/31 08:43:47;;;;;;;;;;;;;;;;;;5046360;28;19932;-72
2023/10/31 08:46:14;;;;;;;;;;;;;;;;;;5045700;28;19980;-70
2023/10/31 08:48:41;;;;;;;;;;;;;;;;;;5040321;28;20019;-70
2023/10/31 08:51:08;;;;;;;;;;;;;;;;;;5044977;28;20395;-69
2023/10/31 08:53:35;;;;;;;;;;;;;;;;;;5050248;28;19956;-67
2023/10/31 08:56:02;;;;;;;;;;;;;;;;;;5039169;28;19973;-70
2023/10/31 08:58:29;;;;;;;;;;;;;;;;;;5047851;28;20384;-70
2023/10/31 09:00:56;;;;;;;;;;;;;;;;;;5040058;28;19932;-70
2023/10/31 09:03:23;;;;;;;;;;;;;;;;;;5039952;28;19960;-70
2023/10/31 09:05:50;;;;;;;;;;;;;;;;;;5044220;28;19977;-69
2023/10/31 09:08:18;;;;;;;;;;;;;;;;;;5035410;28;19924;-71
2023/10/31 09:10:46;;;;;;;;;;;;;;;;;;5041087;28;19929;-70
2023/10/31 09:13:13;;;;;;;;;;;;;;;;;;5044156;28;19980;-70
2023/10/31 09:15:41;;;;;;;;;;;;;;;;;;5044116;28;20317;-70
2023/10/31 09:18:08;;;;;;;;;;;;;;;;;;5039256;28;19995;-69
2023/10/31 09:20:35;;;;;;;;;;;;;;;;;;5039317;28;20023;-69
2023/10/31 09:23:02;;;;;;;;;;;;;;;;;;5037857;28;19931;-70
2023/10/31 09:25:30;;;;;;;;;;;;;;;;;;5037255;28;19928;-71
2023/10/31 09:27:58;;;;;;;;;;;;;;;;;;5043156;28;19929;-71
2023/10/31 09:30:26;;;;;;;;;;;;;;;;;;5037134;28;19933;-70
2023/10/31 09:32:53;;;;;;;;;;;;;;;;;;5038035;28;20312;-70
2023/10/31 09:35:20;;;;;;;;;;;;;;;;;;5049552;28;19937;-70
2023/10/31 09:37:48;;;;;;;;;;;;;;;;;;5041177;28;19933;-69
2023/10/31 09:40:15;;;;;;;;;;;;;;;;;;5039592;28;19933;-69
2023/10/31 09:42:42;;;;;;;;;;;;;;;;;;5048304;22;19932;-69
2023/10/31 09:45:09;;;;;;;;;;;;;;;;;;5038495;28;19932;-71
2023/10/31 09:47:36;;;;;;;;;;;;;;;;;;5042046;28;20406;-70
2023/10/31 09:50:03;;;;;;;;;;;;;;;;;;5046062;28;20016;-72
2023/10/31 09:52:30;;;;;;;;;;;;;;;;;;5047435;28;19924;-72
2023/10/31 09:54:58;;;;;;;;;;;;;;;;;;5044629;28;19931;-72
2023/10/31 09:57:26;;;;;;;;;;;;;;;;;;5043179;28;19931;-72
2023/10/31 09:59:53;;;;;;;;;;;;;;;;;;5030988;28;20414;-73
2023/10/31 10:02:20;;;;;;;;;;;;;;;;;;5040501;28;19929;-72
2023/10/31 10:04:47;;;;;;;;;;;;;;;;;;5043192;28;19925;-72
2023/10/31 10:07:14;;;;;;;;;;;;;;;;;;5047408;28;19971;-72
2023/10/31 10:09:41;;;;;;;;;;;;;;;;;;5046905;28;19926;-72
2023/10/31 10:12:09;;;;;;;;;;;;;;;;;;5050530;28;19936;-72
2023/10/31 10:14:36;;;;;;;;;;;;;;;;;;5048903;28;19994;-70
2023/10/31 10:17:03;;;;;;;;;;;;;;;;;;5047559;28;19957;-70
2023/10/31 10:19:30;;;;;;;;;;;;;;;;;;5045852;28;20024;-69
2023/10/31 10:21:57;;;;;;;;;;;;;;;;;;5051352;28;20011;-71
2023/10/31 10:24:24;;;;;;;;;;;;;;;;;;5049528;28;19987;-71
2023/10/31 10:26:51;;;;;;;;;;;;;;;;;;5046311;28;19928;-72
2023/10/31 10:29:18;;;;;;;;;;;;;;;;;;5048332;28;20103;-72
2023/10/31 10:31:45;;;;;;;;;;;;;;;;;;5050633;28;19924;-71
2023/10/31 10:34:13;;;;;;;;;;;;;;;;;;5050396;28;19925;-72
2023/10/31 10:36:40;;;;;;;;;;;;;;;;;;5052563;28;19925;-70
2023/10/31 10:39:07;;;;;;;;;;;;;;;;;;5054060;28;19968;-72
2023/10/31 10:41:34;;;;;;;;;;;;;;;;;;5048793;28;19924;-73
2023/10/31 10:44:01;;;;;;;;;;;;;;;;;;5054185;28;19925;-69
2023/10/31 10:46:28;;;;;;;;;;;;;;;;;;5049609;28;19925;-69
2023/10/31 10:48:55;;;;;;;;;;;;;;;;;;5048242;28;20006;-69
2023/10/31 10:51:22;;;;;;;;;;;;;;;;;;5047256;28;20406;-72
2023/10/31 10:53:50;;;;;;;;;;;;;;;;;;5047977;28;20013;-70
2023/10/31 10:56:17;;;;;;;;;;;;;;;;;;5044454;22;19929;-71
2023/10/31 10:58:44;;;;;;;;;;;;;;;;;;5034896;28;19925;-71
2023/10/31 11:01:11;;;;;;;;;;;;;;;;;;5026016;28;20476;-72
2023/10/31 11:03:38;;;;;;;;;;;;;;;;;;5020119;28;19935;-70
2023/10/31 11:06:05;;;;;;;;;;;;;;;;;;5027158;28;20016;-71
2023/10/31 11:08:33;;;;;;;;;;;;;;;;;;5024189;28;19926;-73
2023/10/31 11:11:00;;;;;;;;;;;;;;;;;;5033052;28;20398;-72
2023/10/31 11:13:27;;;;;;;;;;;;;;;;;;5031866;28;20008;-74
2023/10/31 11:15:54;;;;;;;;;;;;;;;;;;5026920;28;19929;-72
2023/10/31 11:18:21;;;;;;;;;;;;;;;;;;5036693;28;19968;-71
2023/10/31 11:20:48;;;;;;;;;;;;;;;;;;5031938;28;20032;-72
2023/10/31 11:23:15;;;;;;;;;;;;;;;;;;5032010;28;19964;-72
2023/10/31 11:25:42;;;;;;;;;;;;;;;;;;5026585;28;20004;-73
2023/10/31 11:28:09;;;;;;;;;;;;;;;;;;5026986;28;19971;-71
2023/10/31 11:30:44;;;;;;;;;;;;;;;;;;5027874;28;19935;-73
2023/10/31 11:33:11;;;;;;;;;;;;;;;;;;5052662;22;20007;-72
2023/10/31 11:35:38;;;;;;;;;;;;;;;;;;5049323;28;19933;-72
2023/10/31 11:38:05;;;;;;;;;;;;;;;;;;5047407;28;19925;-72
2023/10/31 11:40:32;;;;;;;;;;;;;;;;;;5049900;28;19932;-72
2023/10/31 11:43:00;;;;;;;;;;;;;;;;;;5047631;28;20352;-72
2023/10/31 11:45:27;;;;;;;;;;;;;;;;;;5046185;28;20032;-72
2023/10/31 11:47:54;;;;;;;;;;;;;;;;;;5047781;28;20299;-73
2023/10/31 11:50:21;;;;;;;;;;;;;;;;;;5049269;28;19979;-71
2023/10/31 11:52:48;;;;;;;;;;;;;;;;;;5050225;28;19932;-72
2023/10/31 11:55:15;;;;;;;;;;;;;;;;;;5048564;28;20003;-72
2023/10/31 11:57:42;;;;;;;;;;;;;;;;;;5042729;22;20376;-71
2023/10/31 12:00:10;;;;;;;;;;;;;;;;;;5028341;28;20286;-71
2023/10/31 12:02:37;;;;;;;;;;;;;;;;;;5029710;28;19933;-70
2023/10/31 12:05:04;;;;;;;;;;;;;;;;;;5064901;22;20010;-71
2023/10/31 12:07:32;;;;;;;;;;;;;;;;;;5048035;28;19995;-71
2023/10/31 12:09:59;;;;;;;;;;;;;;;;;;5041176;28;19925;-72
2023/10/31 12:12:26;;;;;;;;;;;;;;;;;;5044268;28;20353;-71
2023/10/31 12:14:53;;;;;;;;;;;;;;;;;;5047510;28;19968;-72
2023/10/31 12:17:20;;;;;;;;;;;;;;;;;;5062684;22;19932;-72
2023/10/31 12:19:47;;;;;;;;;;;;;;;;;;5062930;28;19968;-72
2023/10/31 12:22:14;;;;;;;;;;;;;;;;;;5064523;28;20024;-72
2023/10/31 12:24:41;;;;;;;;;;;;;;;;;;5064759;28;20015;-73
2023/10/31 12:27:08;;;;;;;;;;;;;;;;;;5064965;28;19929;-71
2023/10/31 12:29:35;;;;;;;;;;;;;;;;;;5061308;28;20059;-71
2023/10/31 12:32:02;;;;;;;;;;;;;;;;;;5064298;28;20446;-72
2023/10/31 12:34:29;;;;;;;;;;;;;;;;;;5070140;28;20020;-74
2023/10/31 12:36:59;;;;;;;;;;;;;;;;;;5068341;28;20013;-75
2023/10/31 12:39:26;;;;;;;;;;;;;;;;;;5068774;28;19925;-72
2023/10/31 12:41:53;;;;;;;;;;;;;;;;;;5068959;28;19924;-71
2023/10/31 12:44:20;;;;;;;;;;;;;;;;;;5073234;28;20347;-71
2023/10/31 12:46:47;;;;;;;;;;;;;;;;;;5068968;28;19924;-71
2023/10/31 12:49:14;;;;;;;;;;;;;;;;;;5068234;28;19930;-71
2023/10/31 12:51:41;;;;;;;;;;;;;;;;;;5064242;28;20381;-71
2023/10/31 12:54:08;;;;;;;;;;;;;;;;;;5072237;28;20003;-71
2023/10/31 12:56:37;;;;;;;;;;;;;;;;;;5068496;28;20028;-72
2023/10/31 12:59:04;;;;;;;;;;;;;;;;;;5060650;28;20328;-72
2023/10/31 13:01:32;;;;;;;;;;;;;;;;;;5070511;28;19928;-73
2023/10/31 13:03:59;;;;;;;;;;;;;;;;;;5060452;28;19943;-74
2023/10/31 13:06:27;;;;;;;;;;;;;;;;;;5062417;28;20022;-71
2023/10/31 13:08:54;;;;;;;;;;;;;;;;;;5069965;28;19924;-71
2023/10/31 13:11:25;;;;;;;;;;;;;;;;;;5072259;28;19939;-71
2023/10/31 13:13:52;;;;;;;;;;;;;;;;;;5068529;28;20403;-71
2023/10/31 13:16:19;;;;;;;;;;;;;;;;;;5066095;28;19963;-71
2023/10/31 13:18:46;;;;;;;;;;;;;;;;;;5065090;28;20015;-70
2023/10/31 13:21:14;;;;;;;;;;;;;;;;;;5065564;28;20338;-71
2023/10/31 13:23:44;;;;;;;;;;;;;;;;;;5060182;28;20266;-71
2023/10/31 13:26:12;;;;;;;;;;;;;;;;;;5067093;28;19937;-71
2023/10/31 13:28:39;;;;;;;;;;;;;;;;;;5068214;28;19932;-71
2023/10/31 13:31:06;;;;;;;;;;;;;;;;;;5062216;28;20324;-71
2023/10/31 13:33:33;;;;;;;;;;;;;;;;;;5064372;28;19935;-72
2023/10/31 13:36:00;;;;;;;;;;;;;;;;;;5072395;28;19935;-69
2023/10/31 13:38:27;;;;;;;;;;;;;;;;;;5067156;28;20015;-70
2023/10/31 13:40:55;;;;;;;;;;;;;;;;;;5072038;28;19933;-69
2023/10/31 13:43:22;;;;;;;;;;;;;;;;;;5061910;28;19928;-70
2023/10/31 13:45:49;;;;;;;;;;;;;;;;;;5065896;28;20019;-70
2023/10/31 13:48:16;;;;;;;;;;;;;;;;;;5067590;28;19943;-71
2023/10/31 13:50:43;;;;;;;;;;;;;;;;;;5068887;28;20019;-71
2023/10/31 13:53:12;;;;;;;;;;;;;;;;;;5060985;28;19982;-70
2023/10/31 13:55:39;;;;;;;;;;;;;;;;;;5068580;28;19971;-71
2023/10/31 13:58:06;;;;;;;;;;;;;;;;;;5070812;28;20370;-70
2023/10/31 14:00:34;;;;;;;;;;;;;;;;;;5066867;28;19925;-71
2023/10/31 14:03:01;;;;;;;;;;;;;;;;;;5066139;28;20310;-71
2023/10/31 14:05:28;;;;;;;;;;;;;;;;;;5060567;28;19972;-70
2023/10/31 14:07:55;;;;;;;;;;;;;;;;;;5064446;28;19924;-71
2023/10/31 14:10:23;;;;;;;;;;;;;;;;;;5074737;28;19974;-70
2023/10/31 14:12:50;;;;;;;;;;;;;;;;;;5069680;28;19925;-71
2023/10/31 14:15:17;;;;;;;;;;;;;;;;;;5076631;28;20436;-70
2023/10/31 14:17:44;;;;;;;;;;;;;;;;;;5074235;28;20015;-70
2023/10/31 14:20:11;;;;;;;;;;;;;;;;;;5063875;28;20678;-71
2023/10/31 14:22:38;;;;;;;;;;;;;;;;;;5070308;28;20024;-73
2023/10/31 14:25:07;;;;;;;;;;;;;;;;;;5072401;28;19930;-72
2023/10/31 14:27:34;;;;;;;;;;;;;;;;;;5076082;28;20038;-71
2023/10/31 14:30:02;;;;;;;;;;;;;;;;;;5068174;28;19928;-71
2023/10/31 14:32:29;;;;;;;;;;;;;;;;;;5076508;28;19925;-70
2023/10/31 14:34:56;;;;;;;;;;;;;;;;;;5077246;28;20440;-71
2023/10/31 14:37:23;;;;;;;;;;;;;;;;;;5073313;28;20034;-71
2023/10/31 14:39:50;;;;;;;;;;;;;;;;;;5061954;28;20019;-71
2023/10/31 14:42:17;;;;;;;;;;;;;;;;;;5074100;28;20324;-70
2023/10/31 14:44:44;;;;;;;;;;;;;;;;;;5073125;28;19924;-70
2023/10/31 14:47:11;;;;;;;;;;;;;;;;;;5067396;28;19938;-71
2023/10/31 14:49:38;;;;;;;;;;;;;;;;;;5078026;28;19968;-71
2023/10/31 14:52:06;;;;;;;;;;;;;;;;;;5076824;28;19955;-71
2023/10/31 14:54:34;;;;;;;;;;;;;;;;;;5077951;28;19924;-71
2023/10/31 14:57:01;;;;;;;;;;;;;;;;;;5069855;28;19933;-71
2023/10/31 14:59:28;;;;;;;;;;;;;;;;;;5072551;28;19936;-70
2023/10/31 15:01:55;;;;;;;;;;;;;;;;;;5070556;28;19939;-71
2023/10/31 15:04:22;;;;;;;;;;;;;;;;;;5070186;28;19971;-71
2023/10/31 15:06:49;;;;;;;;;;;;;;;;;;5073515;28;19925;-70
2023/10/31 15:09:19;;;;;;;;;;;;;;;;;;5069980;28;19931;-71
2023/10/31 15:11:46;;;;;;;;;;;;;;;;;;5071527;28;20422;-71
2023/10/31 15:14:13;;;;;;;;;;;;;;;;;;5069923;28;20303;-71
2023/10/31 15:16:40;;;;;;;;;;;;;;;;;;5073759;28;19929;-72
2023/10/31 15:19:07;;;;;;;;;;;;;;;;;;5074929;28;20010;-70
2023/10/31 15:21:34;;;;;;;;;;;;;;;;;;5074247;28;19932;-68
2023/10/31 15:24:01;;;;;;;;;;;;;;;;;;5074009;28;19929;-69
2023/10/31 15:26:28;;;;;;;;;;;;;;;;;;5071904;28;20432;-70
2023/10/31 15:28:55;;;;;;;;;;;;;;;;;;5071358;28;20426;-70
2023/10/31 15:31:22;;;;;;;;;;;;;;;;;;5068138;28;19935;-70
2023/10/31 15:33:49;;;;;;;;;;;;;;;;;;5072703;28;19994;-71
2023/10/31 15:36:16;;;;;;;;;;;;;;;;;;5073232;28;20019;-71
2023/10/31 15:38:43;;;;;;;;;;;;;;;;;;5064450;28;20015;-72
2023/10/31 15:41:12;;;;;;;;;;;;;;;;;;5072385;28;20224;-71
2023/10/31 15:43:39;;;;;;;;;;;;;;;;;;5060295;28;19924;-71
2023/10/31 15:46:06;;;;;;;;;;;;;;;;;;5074575;28;19925;-71
2023/10/31 15:48:34;;;;;;;;;;;;;;;;;;5062699;28;20018;-71
2023/10/31 15:51:02;;;;;;;;;;;;;;;;;;5063790;28;20016;-71
2023/10/31 15:53:31;;;;;;;;;;;;;;;;;;5062056;28;19932;-72
2023/10/31 15:55:58;;;;;;;;;;;;;;;;;;5072859;28;20288;-70
2023/10/31 15:58:26;;;;;;;;;;;;;;;;;;5062795;28;20015;-73
2023/10/31 16:00:53;;;;;;;;;;;;;;;;;;5071157;28;19987;-71
2023/10/31 16:03:20;;;;;;;;;;;;;;;;;;5071118;28;19924;-71
2023/10/31 16:05:49;;;;;;;;;;;;;;;;;;5065710;28;20681;-70
2023/10/31 16:08:17;;;;;;;;;;;;;;;;;;5063213;28;20011;-70
2023/10/31 16:10:44;;;;;;;;;;;;;;;;;;5074127;28;19931;-71
2023/10/31 16:13:11;;;;;;;;;;;;;;;;;;5062909;28;20015;-72
2023/10/31 16:15:38;;;;;;;;;;;;;;;;;;5072002;28;19925;-73
2023/10/31 16:18:06;;;;;;;;;;;;;;;;;;5070263;28;20446;-73
2023/10/31 16:20:33;;;;;;;;;;;;;;;;;;5073414;28;19932;-73
2023/10/31 16:23:00;;;;;;;;;;;;;;;;;;5072994;28;20390;-72
2023/10/31 16:25:27;;;;;;;;;;;;;;;;;;5072496;28;19977;-73
2023/10/31 16:27:54;;;;;;;;;;;;;;;;;;5071745;28;19924;-72
2023/10/31 16:30:21;;;;;;;;;;;;;;;;;;5066769;28;20022;-73
2023/10/31 16:32:49;;;;;;;;;;;;;;;;;;5070238;28;19971;-71
2023/10/31 16:35:16;;;;;;;;;;;;;;;;;;5071428;28;20403;-71
2023/10/31 16:37:43;;;;;;;;;;;;;;;;;;5059805;28;20312;-72
2023/10/31 16:40:10;;;;;;;;;;;;;;;;;;5064217;28;20247;-71
2023/10/31 16:42:37;;;;;;;;;;;;;;;;;;5071135;28;19985;-70
2023/10/31 16:45:05;;;;;;;;;;;;;;;;;;5070723;28;19935;-70